KGLW/GLW METAR and TAF weather

Enter ICAO airport designator
Station Type Date Time Source
KGLW METAR 2019/07/18 10:55 UTC NOAA

KGLW 181055Z AUTO 23004KT 10SM SCT009 23/21 A3001 RMK AO2 T02270213


Station Type Date Time Source
KGLW Decoded METAR 2019/07/18 10:55 UTC NOAA

Glasgow, Glasgow Municipal Airport, KY, United States (KGLW) 37-01-54N 085-57-13W
Jul 18, 2019 - 06:55 AM EDT / 2019.07.18 1055 UTC
Wind: from the SW (230 degrees) at 5 MPH (4 KT):0
Visibility: 10 mile(s):0
Sky conditions: partly cloudy
Temperature: 72.9 F (22.7 C)
Dew Point: 70.3 F (21.3 C)
Relative Humidity: 91%
Pressure (altimeter): 30.01 in. Hg (1016 hPa)
ob: KGLW 181055Z AUTO 23004KT 10SM SCT009 23/21 A3001 RMK AO2 T02270213
cycle: 11

Station Type Date Time Source
KGLW TAF UTC NOAA

Error!

Example: see airport list